Time;durP1;ratioP1;P1;durP2;ratioP2;P2;SDS_P1;SDS_P2;PMS_P1;PMS_P2;Temp;Humidity;BMP_temperature;BMP_pressure;BME280_temperature;BME280_humidity;BME280_pressure;Samples;Min_cycle;Max_cycle;Signal;HPM_P1;HPM_P2
2021/06/29 00:01:46;;;;;;;36.37;29.63;;;21.50;99.90;;;;;;6280295;22;20497;-83
2021/06/29 00:04:13;;;;;;;31.80;24.73;;;21.50;99.90;;;;;;6282716;22;20453;-83
2021/06/29 00:06:40;;;;;;;29.90;17.97;;;21.50;99.90;;;;;;6283843;22;20446;-83
2021/06/29 00:09:07;;;;;;;57.87;52.83;;;21.50;99.90;;;;;;6281080;22;20537;-82
2021/06/29 00:11:34;;;;;;;31.07;24.00;;;21.50;99.90;;;;;;6280581;22;20403;-82
2021/06/29 00:14:02;;;;;;;25.00;11.47;;;21.40;99.90;;;;;;6280508;22;20426;-83
2021/06/29 00:16:28;;;;;;;29.03;19.90;;;21.40;99.90;;;;;;6282185;22;20481;-83
2021/06/29 00:18:55;;;;;;;23.00;11.20;;;21.50;99.90;;;;;;6284261;22;20445;-79
2021/06/29 00:21:22;;;;;;;31.93;21.97;;;21.40;99.90;;;;;;6288293;22;20472;-79
2021/06/29 00:23:49;;;;;;;30.27;21.40;;;21.40;99.90;;;;;;6281344;22;20482;-80
2021/06/29 00:26:16;;;;;;;25.70;12.10;;;21.30;99.90;;;;;;6278156;22;20482;-80
2021/06/29 00:28:43;;;;;;;29.37;20.73;;;21.20;99.90;;;;;;6281131;22;20473;-80
2021/06/29 00:31:11;;;;;;;26.10;15.07;;;21.10;99.90;;;;;;6281029;22;20403;-80
2021/06/29 00:33:38;;;;;;;26.00;15.30;;;21.20;99.90;;;;;;6278578;22;20518;-80
2021/06/29 00:36:05;;;;;;;23.77;10.80;;;21.10;99.90;;;;;;6278770;22;20493;-81
2021/06/29 00:38:32;;;;;;;25.80;12.17;;;21.10;99.90;;;;;;6278219;22;20976;-80
2021/06/29 00:40:59;;;;;;;24.07;11.13;;;21.10;99.90;;;;;;6279251;22;20408;-83
2021/06/29 00:43:26;;;;;;;24.77;10.67;;;21.10;99.90;;;;;;6279133;22;20827;-82
2021/06/29 00:45:54;;;;;;;25.50;12.27;;;21.20;99.90;;;;;;6279371;22;20411;-82
2021/06/29 00:48:23;;;;;;;21.00;9.63;;;21.10;99.90;;;;;;6280612;22;20442;-80
2021/06/29 00:50:49;;;;;;;28.97;20.17;;;21.10;99.90;;;;;;6279108;22;20963;-81
2021/06/29 00:53:17;;;;;;;24.30;12.77;;;21.10;99.90;;;;;;6279475;22;20461;-81
2021/06/29 00:55:44;;;;;;;21.20;10.23;;;21.00;99.90;;;;;;6280790;22;20490;-80
2021/06/29 00:58:13;;;;;;;26.03;10.63;;;21.00;99.90;;;;;;6281600;22;20457;-80
2021/06/29 01:00:41;;;;;;;28.77;19.93;;;21.00;99.90;;;;;;6281119;22;20474;-79
2021/06/29 01:03:09;;;;;;;25.57;15.10;;;20.90;99.90;;;;;;6281021;22;20469;-80
2021/06/29 01:05:37;;;;;;;25.30;13.77;;;21.00;99.90;;;;;;6281104;22;20446;-80
2021/06/29 01:08:05;;;;;;;22.67;10.00;;;21.00;99.90;;;;;;6280494;22;20451;-80
2021/06/29 01:10:32;;;;;;;22.90;11.63;;;20.90;99.90;;;;;;6279565;22;20976;-80
2021/06/29 01:12:59;;;;;;;21.27;10.20;;;20.90;99.90;;;;;;6280067;22;20462;-81
2021/06/29 01:15:26;;;;;;;22.07;9.83;;;21.00;99.90;;;;;;6281387;22;20442;-82
2021/06/29 01:17:53;;;;;;;22.33;10.80;;;21.00;99.90;;;;;;6281499;22;20443;-79
2021/06/29 01:20:26;;;;;;;20.87;10.60;;;21.00;99.90;;;;;;6281715;22;20502;-80
2021/06/29 01:22:55;;;;;;;24.53;14.20;;;21.00;99.90;;;;;;6281893;22;21068;-80
2021/06/29 01:25:24;;;;;;;22.10;10.97;;;20.90;99.90;;;;;;6281953;22;20410;-81
2021/06/29 01:27:58;;;;;;;22.77;12.40;;;20.80;99.90;;;;;;6281070;22;20489;-80
2021/06/29 01:33:09;;;;;;;21.60;11.23;;;20.90;99.90;;;;;;6295508;22;20429;-81
2021/06/29 01:35:40;;;;;;;23.53;11.37;;;20.90;99.90;;;;;;6296185;22;20414;-81
2021/06/29 01:38:07;;;;;;;20.27;11.23;;;20.80;99.90;;;;;;6293305;22;20387;-80
2021/06/29 01:40:34;;;;;;;20.50;9.87;;;20.80;99.90;;;;;;6282469;22;20407;-81
2021/06/29 01:43:01;;;;;;;19.90;10.27;;;20.80;99.90;;;;;;6282348;22;20435;-81
2021/06/29 01:45:29;;;;;;;21.03;11.00;;;20.80;99.90;;;;;;6284009;22;20460;-81
2021/06/29 01:48:01;;;;;;;20.27;11.00;;;20.90;99.90;;;;;;6285340;22;20439;-80
2021/06/29 01:50:29;;;;;;;21.57;11.13;;;20.90;99.90;;;;;;6282411;22;20395;-80
2021/06/29 01:52:59;;;;;;;24.90;14.63;;;20.80;99.90;;;;;;6282967;22;20518;-80
2021/06/29 01:55:27;;;;;;;20.50;11.40;;;20.80;99.90;;;;;;6284005;22;20443;-80
2021/06/29 01:57:55;;;;;;;22.47;11.00;;;20.70;99.90;;;;;;6281958;22;20470;-80
2021/06/29 02:00:22;;;;;;;18.93;10.27;;;20.70;99.90;;;;;;6280526;22;20407;-80
2021/06/29 02:02:49;;;;;;;23.90;11.50;;;20.80;99.90;;;;;;6280362;22;20836;-80
2021/06/29 02:05:16;;;;;;;19.87;9.60;;;20.80;99.90;;;;;;6280486;22;20449;-80
2021/06/29 02:07:44;;;;;;;21.30;9.70;;;20.90;99.90;;;;;;6280704;22;20727;-80
2021/06/29 02:10:14;;;;;;;18.30;9.10;;;20.80;99.90;;;;;;6280355;22;20486;-80
2021/06/29 02:12:42;;;;;;;24.30;13.63;;;20.90;99.90;;;;;;6287837;22;20458;-80
2021/06/29 02:15:09;;;;;;;21.30;11.10;;;20.70;99.90;;;;;;6288589;22;20474;-80
2021/06/29 02:17:36;;;;;;;21.70;12.07;;;20.80;99.90;;;;;;6287352;22;20402;-80
2021/06/29 02:20:04;;;;;;;19.40;9.53;;;20.80;99.90;;;;;;6281754;22;20434;-81
2021/06/29 02:22:32;;;;;;;21.23;10.97;;;20.90;99.90;;;;;;6281258;22;20437;-81
2021/06/29 02:24:59;;;;;;;18.10;9.10;;;20.80;99.90;;;;;;6281541;22;20413;-81
2021/06/29 02:27:29;;;;;;;25.97;13.67;;;20.90;99.90;;;;;;6280429;22;20414;-80
2021/06/29 02:29:56;;;;;;;20.37;9.50;;;20.90;99.90;;;;;;6280877;22;20442;-81
2021/06/29 02:32:24;;;;;;;20.97;10.50;;;20.80;99.90;;;;;;6282134;22;20469;-81
2021/06/29 02:34:51;;;;;;;19.70;9.60;;;20.90;99.90;;;;;;6281588;22;20402;-81
2021/06/29 02:37:18;;;;;;;18.57;8.37;;;20.80;99.90;;;;;;6281391;22;20407;-81
2021/06/29 02:39:44;;;;;;;18.90;8.47;;;20.80;99.90;;;;;;6282383;22;20458;-81
2021/06/29 02:42:12;;;;;;;22.53;13.33;;;20.90;99.90;;;;;;6283375;22;20462;-82
2021/06/29 02:44:41;;;;;;;17.40;8.70;;;20.70;99.90;;;;;;6282717;22;20446;-81
2021/06/29 02:47:09;;;;;;;17.40;8.67;;;20.70;99.90;;;;;;6283883;22;20414;-81
2021/06/29 02:49:35;;;;;;;19.90;10.23;;;20.70;99.90;;;;;;6291673;22;20445;-82
2021/06/29 02:52:03;;;;;;;19.57;8.70;;;20.70;99.90;;;;;;6291493;22;20399;-81
2021/06/29 02:54:29;;;;;;;22.47;12.10;;;20.70;99.90;;;;;;6282314;22;20410;-81
2021/06/29 02:56:56;;;;;;;22.37;12.27;;;20.40;99.90;;;;;;6282693;22;20627;-81
2021/06/29 02:59:23;;;;;;;18.67;10.60;;;20.50;99.90;;;;;;6282149;22;20901;-80
2021/06/29 03:01:52;;;;;;;19.70;9.47;;;20.50;99.90;;;;;;6282797;22;20468;-81
2021/06/29 03:04:19;;;;;;;21.53;9.50;;;20.40;99.90;;;;;;6284409;22;20509;-81
2021/06/29 03:06:46;;;;;;;18.30;8.80;;;20.40;99.90;;;;;;6282508;22;20481;-81
2021/06/29 03:09:13;;;;;;;20.10;10.13;;;20.40;99.90;;;;;;6284228;22;20534;-80
2021/06/29 03:11:40;;;;;;;20.60;10.20;;;20.30;99.90;;;;;;6284660;22;20489;-80
2021/06/29 03:14:07;;;;;;;16.70;9.40;;;20.30;99.90;;;;;;6285030;22;20522;-80
2021/06/29 03:16:34;;;;;;;20.80;10.97;;;20.30;99.90;;;;;;6283951;22;20418;-81
2021/06/29 03:19:03;;;;;;;18.10;9.37;;;20.10;99.90;;;;;;6282697;22;20898;-82
2021/06/29 03:21:30;;;;;;;19.33;9.90;;;20.10;99.90;;;;;;6284088;22;20474;-80
2021/06/29 03:23:57;;;;;;;20.70;9.80;;;20.10;99.90;;;;;;6284762;22;20473;-80
2021/06/29 03:26:23;;;;;;;17.07;8.00;;;20.20;99.90;;;;;;6282162;22;20466;-81
2021/06/29 03:28:51;;;;;;;17.83;9.23;;;20.20;99.90;;;;;;6281418;22;20438;-79
2021/06/29 03:31:17;;;;;;;17.80;8.47;;;20.10;99.90;;;;;;6280456;22;20407;-78
2021/06/29 03:33:45;;;;;;;16.57;7.90;;;20.00;99.90;;;;;;6277644;22;20446;-78
2021/06/29 03:36:13;;;;;;;16.97;8.50;;;20.10;99.90;;;;;;6278227;22;20407;-78
2021/06/29 03:38:40;;;;;;;16.67;7.50;;;20.00;99.90;;;;;;6278210;22;20409;-78
2021/06/29 03:41:07;;;;;;;16.47;8.63;;;20.00;99.90;;;;;;6278106;22;20415;-78
2021/06/29 03:43:36;;;;;;;21.43;9.00;;;20.00;99.90;;;;;;6278647;22;20745;-78
2021/06/29 03:46:03;;;;;;;19.70;11.70;;;20.00;99.90;;;;;;6278016;22;20407;-78
2021/06/29 03:48:30;;;;;;;17.80;9.27;;;19.90;99.90;;;;;;6277694;22;20438;-78
2021/06/29 03:50:56;;;;;;;18.63;9.30;;;19.80;99.90;;;;;;6279684;22;20915;-78
2021/06/29 03:53:24;;;;;;;17.63;8.97;;;19.90;99.90;;;;;;6280974;22;20514;-78
2021/06/29 03:55:51;;;;;;;20.20;11.30;;;19.80;99.90;;;;;;6280947;22;20461;-79
2021/06/29 03:58:19;;;;;;;18.07;8.83;;;19.80;99.90;;;;;;6280539;22;20421;-79
2021/06/29 04:00:46;;;;;;;16.80;8.50;;;19.80;99.90;;;;;;6280473;22;20430;-79
2021/06/29 04:03:13;;;;;;;16.90;8.93;;;19.80;99.90;;;;;;6281250;22;20506;-79
2021/06/29 04:05:40;;;;;;;16.90;8.03;;;19.80;99.90;;;;;;6280547;22;20434;-79
2021/06/29 04:08:07;;;;;;;18.70;8.50;;;19.80;99.90;;;;;;6279860;22;20415;-79
2021/06/29 04:10:35;;;;;;;17.57;8.30;;;20.00;99.90;;;;;;6279987;22;20417;-79
2021/06/29 04:13:02;;;;;;;19.70;9.37;;;19.90;99.90;;;;;;6278936;22;20447;-79
2021/06/29 04:15:30;;;;;;;15.63;7.67;;;19.90;99.90;;;;;;6282026;22;20411;-81
2021/06/29 04:17:56;;;;;;;17.10;7.93;;;19.80;99.90;;;;;;6281305;22;20926;-81
2021/06/29 04:20:23;;;;;;;22.93;9.87;;;20.00;99.90;;;;;;6281615;22;20808;-80
2021/06/29 04:22:50;;;;;;;17.53;7.67;;;19.90;99.90;;;;;;6282140;22;20491;-80
2021/06/29 04:25:17;;;;;;;18.17;8.60;;;20.00;99.90;;;;;;6282133;22;20478;-81
2021/06/29 04:27:46;;;;;;;15.83;8.17;;;20.00;99.90;;;;;;6280156;22;20636;-81
2021/06/29 04:30:14;;;;;;;23.37;12.77;;;20.00;99.90;;;;;;6281072;22;20446;-81
2021/06/29 04:32:41;;;;;;;16.27;8.13;;;20.00;99.90;;;;;;6254398;22;20498;-80
2021/06/29 04:35:09;;;;;;;15.50;7.73;;;20.00;99.90;;;;;;6281074;22;20518;-80
2021/06/29 04:37:35;;;;;;;22.90;10.73;;;20.00;99.90;;;;;;6280865;22;20407;-80
2021/06/29 04:40:02;;;;;;;18.77;9.10;;;20.10;99.90;;;;;;6281062;22;20434;-80
2021/06/29 04:42:29;;;;;;;15.77;7.70;;;20.10;99.90;;;;;;6280454;22;21024;-79
2021/06/29 04:44:58;;;;;;;16.47;7.60;;;20.20;99.90;;;;;;6279037;22;20825;-78
2021/06/29 04:47:25;;;;;;;17.47;8.60;;;20.40;99.90;;;;;;6278786;22;20921;-79
2021/06/29 04:49:55;;;;;;;16.87;7.70;;;20.50;99.90;;;;;;6278678;22;20485;-79
2021/06/29 04:52:22;;;;;;;11.77;4.17;;;20.50;99.90;;;;;;6284253;22;20443;-80
2021/06/29 04:54:49;;;;;;;13.67;4.30;;;20.60;99.90;;;;;;6283387;22;20407;-80
2021/06/29 04:57:15;;;;;;;14.07;5.53;;;20.70;99.90;;;;;;6281222;22;20474;-80
2021/06/29 04:59:42;;;;;;;14.47;5.60;;;20.90;99.90;;;;;;6279935;22;20446;-80
2021/06/29 05:02:11;;;;;;;13.90;5.57;;;20.90;99.90;;;;;;6285309;22;20407;-81
2021/06/29 05:04:37;;;;;;;17.07;5.80;;;21.00;99.90;;;;;;6281112;22;20486;-81
2021/06/29 05:07:05;;;;;;;18.57;6.13;;;21.00;99.90;;;;;;6282514;22;20421;-81
2021/06/29 05:09:31;;;;;;;19.53;6.10;;;21.10;99.90;;;;;;6281776;22;20445;-81
2021/06/29 05:11:58;;;;;;;15.83;6.10;;;21.10;99.90;;;;;;6282105;22;20502;-81
2021/06/29 05:14:25;;;;;;;14.10;5.73;;;21.20;99.90;;;;;;6282533;22;20387;-81
2021/06/29 05:16:52;;;;;;;13.60;5.00;;;21.10;99.90;;;;;;6288184;22;20407;-80
2021/06/29 05:19:20;;;;;;;16.97;5.90;;;21.20;99.90;;;;;;6292598;22;20407;-84
2021/06/29 05:21:47;;;;;;;15.37;5.57;;;21.10;99.90;;;;;;6291547;22;20792;-85
2021/06/29 05:24:14;;;;;;;17.13;5.23;;;21.10;99.90;;;;;;6284185;22;20513;-84
2021/06/29 05:26:41;;;;;;;15.80;5.50;;;21.30;99.90;;;;;;6285499;22;20411;-84
2021/06/29 05:29:07;;;;;;;14.30;5.10;;;21.20;99.90;;;;;;6301340;22;20450;-83
2021/06/29 05:31:34;;;;;;;15.70;6.00;;;21.40;99.90;;;;;;6295605;22;20474;-84
2021/06/29 05:34:01;;;;;;;15.07;5.90;;;21.20;99.90;;;;;;6303727;22;20439;-85
2021/06/29 05:36:29;;;;;;;16.53;5.50;;;21.10;99.90;;;;;;6299228;22;20418;-84
2021/06/29 05:38:56;;;;;;;13.87;4.50;;;21.10;99.90;;;;;;6281310;22;20893;-84
2021/06/29 05:41:23;;;;;;;15.13;5.80;;;21.10;99.90;;;;;;6281142;22;21129;-84
2021/06/29 05:43:50;;;;;;;18.87;7.17;;;21.20;99.90;;;;;;6282156;22;20535;-85
2021/06/29 05:46:17;;;;;;;17.77;7.40;;;21.00;99.90;;;;;;6288105;22;20466;-84
2021/06/29 05:48:44;;;;;;;20.33;8.87;;;20.90;99.90;;;;;;6294645;22;20406;-83
2021/06/29 05:51:11;;;;;;;26.83;8.60;;;20.90;99.90;;;;;;6294252;22;20395;-83
2021/06/29 05:53:39;;;;;;;18.60;6.80;;;21.00;99.90;;;;;;6293989;22;20423;-83
2021/06/29 05:56:07;;;;;;;44.57;8.33;;;21.00;99.90;;;;;;6291652;22;20407;-84
2021/06/29 05:58:35;;;;;;;16.87;5.93;;;21.00;99.90;;;;;;6282943;22;20414;-85
2021/06/29 06:01:01;;;;;;;15.10;4.90;;;21.10;99.90;;;;;;6283586;22;20486;-84
2021/06/29 06:03:28;;;;;;;20.73;6.70;;;21.20;99.90;;;;;;6281707;22;20426;-84
2021/06/29 06:05:55;;;;;;;15.27;5.63;;;21.20;99.90;;;;;;6282874;22;20489;-83
2021/06/29 06:08:22;;;;;;;17.53;6.17;;;21.40;99.90;;;;;;6282536;22;20406;-82
2021/06/29 06:10:50;;;;;;;12.40;4.80;;;21.40;99.90;;;;;;6280763;22;20453;-83
2021/06/29 06:13:17;;;;;;;19.17;7.13;;;21.70;99.90;;;;;;6280965;22;20511;-83
2021/06/29 06:15:44;;;;;;;15.90;5.70;;;21.50;99.90;;;;;;6282711;22;20403;-83
2021/06/29 06:18:39;;;;;;;14.00;4.57;;;21.50;99.90;;;;;;6281324;22;20430;-83
2021/06/29 06:21:06;;;;;;;16.33;5.90;;;21.70;99.90;;;;;;6274653;22;20488;-83
2021/06/29 06:23:32;;;;;;;19.73;7.97;;;21.50;99.90;;;;;;6281651;22;20826;-83
2021/06/29 06:26:01;;;;;;;20.40;7.77;;;21.40;99.90;;;;;;6283927;22;20426;-85
2021/06/29 06:28:28;;;;;;;16.97;6.20;;;21.30;99.90;;;;;;6282365;22;20456;-84
2021/06/29 06:30:54;;;;;;;19.03;7.10;;;21.30;99.90;;;;;;6282579;22;20555;-82
2021/06/29 06:33:22;;;;;;;19.70;8.60;;;21.20;99.90;;;;;;6283796;22;20445;-86
2021/06/29 06:35:49;;;;;;;15.33;6.87;;;21.10;99.90;;;;;;6281688;22;20411;-84
2021/06/29 06:38:16;;;;;;;17.53;8.03;;;21.20;99.90;;;;;;6283449;22;20442;-84
2021/06/29 06:40:42;;;;;;;33.53;10.67;;;21.10;99.90;;;;;;6282392;22;20779;-84
2021/06/29 06:43:11;;;;;;;19.43;8.53;;;21.20;99.90;;;;;;6282667;22;20469;-83
2021/06/29 06:45:38;;;;;;;23.07;10.17;;;21.10;99.90;;;;;;6282350;22;20439;-84
2021/06/29 06:48:08;;;;;;;19.77;7.67;;;21.10;99.90;;;;;;6282230;22;20437;-84
2021/06/29 06:50:35;;;;;;;14.97;6.73;;;21.30;99.90;;;;;;6293981;22;20431;-83
2021/06/29 06:53:04;;;;;;;23.17;10.87;;;21.40;99.90;;;;;;6293299;22;20422;-85
2021/06/29 06:55:31;;;;;;;19.67;8.17;;;21.40;99.90;;;;;;6295598;22;20402;-82
2021/06/29 06:57:58;;;;;;;18.77;8.50;;;21.60;99.90;;;;;;6294704;22;20435;-83
2021/06/29 07:00:29;;;;;;;18.50;8.80;;;21.80;99.90;;;;;;6293548;22;20470;-82
2021/06/29 07:02:56;;;;;;;18.10;8.30;;;21.80;99.90;;;;;;6294583;22;20434;-82
2021/06/29 07:05:23;;;;;;;15.60;7.20;;;22.00;99.90;;;;;;6294995;22;20414;-82
2021/06/29 07:08:17;;;;;;;19.70;8.50;;;22.30;99.90;;;;;;6209202;22;20394;-83
2021/06/29 07:10:44;;;;;;;16.30;7.97;;;22.60;99.90;;;;;;6282709;22;20468;-82
2021/06/29 07:13:11;;;;;;;19.30;8.60;;;22.80;99.90;;;;;;6282048;22;20439;-83
2021/06/29 07:15:39;;;;;;;20.90;9.20;;;22.90;99.90;;;;;;6283324;22;20446;-82
2021/06/29 07:18:07;;;;;;;20.30;8.80;;;22.80;99.90;;;;;;6281830;22;20477;-82
2021/06/29 07:20:34;;;;;;;21.27;10.80;;;23.00;99.90;;;;;;6282193;22;20482;-82
2021/06/29 07:23:01;;;;;;;22.87;11.77;;;23.10;99.90;;;;;;6283346;22;20518;-83
2021/06/29 07:25:28;;;;;;;24.20;13.00;;;22.90;99.90;;;;;;6282468;22;20437;-82
2021/06/29 07:27:55;;;;;;;31.90;12.60;;;22.90;99.90;;;;;;6282861;22;20434;-81
2021/06/29 07:30:21;;;;;;;24.33;12.03;;;22.90;99.90;;;;;;6282132;22;20477;-82
2021/06/29 07:32:53;;;;;;;23.13;11.90;;;23.00;99.90;;;;;;6283146;22;20530;-82
2021/06/29 07:35:21;;;;;;;22.07;10.97;;;23.00;99.90;;;;;;6282826;22;20876;-83
2021/06/29 07:37:48;;;;;;;21.30;11.43;;;23.10;99.90;;;;;;6288538;22;20407;-81
2021/06/29 07:40:15;;;;;;;19.20;10.60;;;23.00;99.90;;;;;;6293740;22;20443;-81
2021/06/29 07:45:20;;;;;;;20.10;9.50;;;23.10;99.90;;;;;;6300573;22;20479;-85
2021/06/29 07:47:47;;;;;;;17.53;7.60;;;23.20;99.90;;;;;;6288622;22;20469;-85
2021/06/29 07:50:16;;;;;;;21.10;7.70;;;23.10;99.90;;;;;;6278627;22;20474;-84
2021/06/29 07:52:42;;;;;;;24.03;7.13;;;23.00;99.90;;;;;;6279256;22;20407;-86
2021/06/29 07:55:11;;;;;;;15.90;5.50;;;23.00;99.90;;;;;;6278267;22;20458;-85
2021/06/29 07:57:38;;;;;;;19.50;5.90;;;23.10;99.90;;;;;;6277881;22;20447;-85
2021/06/29 08:00:07;;;;;;;19.83;6.47;;;23.00;99.90;;;;;;6278650;22;20410;-86
2021/06/29 08:02:34;;;;;;;18.97;4.93;;;22.90;99.90;;;;;;6280662;22;20410;-85
2021/06/29 08:05:01;;;;;;;16.70;4.67;;;23.00;99.90;;;;;;6280578;22;20438;-85
2021/06/29 08:07:29;;;;;;;16.90;4.60;;;23.10;99.90;;;;;;6278864;22;20498;-85
2021/06/29 08:09:56;;;;;;;28.07;5.33;;;23.30;99.90;;;;;;6280236;22;20438;-85
2021/06/29 08:12:23;;;;;;;18.00;4.30;;;23.30;99.90;;;;;;6280211;22;20445;-84
2021/06/29 08:14:53;;;;;;;19.90;4.43;;;23.40;99.90;;;;;;6279916;22;20411;-84
2021/06/29 08:17:20;;;;;;;17.40;4.27;;;23.60;99.90;;;;;;6278810;22;20414;-84
2021/06/29 08:19:48;;;;;;;13.27;3.50;;;23.80;99.90;;;;;;6280460;22;20977;-84
2021/06/29 08:22:17;;;;;;;17.37;4.00;;;24.00;99.90;;;;;;6278968;22;20410;-85
2021/06/29 08:24:45;;;;;;;21.27;4.40;;;24.10;99.90;;;;;;6280872;22;20466;-85
2021/06/29 08:27:14;;;;;;;25.00;7.30;;;24.50;99.90;;;;;;6279985;22;20907;-84
2021/06/29 08:29:41;;;;;;;19.57;4.93;;;24.50;99.90;;;;;;6278260;22;20407;-85
2021/06/29 08:32:08;;;;;;;16.43;3.63;;;24.60;99.90;;;;;;6281497;22;20796;-85
2021/06/29 08:34:35;;;;;;;20.80;5.03;;;24.90;99.90;;;;;;6281119;22;21000;-84
2021/06/29 08:37:34;;;;;;;22.40;5.37;;;25.00;99.90;;;;;;6281159;22;20415;-84
2021/06/29 08:40:02;;;;;;;17.50;4.43;;;24.90;99.90;;;;;;6282313;22;20384;-84
2021/06/29 08:42:33;;;;;;;25.33;6.73;;;25.20;99.90;;;;;;6282510;22;20407;-84
2021/06/29 08:45:00;;;;;;;22.30;6.33;;;25.30;99.90;;;;;;6281615;22;20559;-84
2021/06/29 08:47:27;;;;;;;24.40;9.50;;;25.30;99.90;;;;;;6280841;22;20434;-84
2021/06/29 08:49:54;;;;;;;28.00;12.70;;;25.00;99.90;;;;;;6280366;22;20477;-85
2021/06/29 08:52:21;;;;;;;23.23;9.23;;;25.00;99.90;;;;;;6280055;22;20519;-86
2021/06/29 08:54:50;;;;;;;38.03;14.80;;;24.90;99.90;;;;;;6279951;22;20431;-85
2021/06/29 08:57:18;;;;;;;29.13;12.70;;;24.10;99.90;;;;;;6282603;22;21022;-84
2021/06/29 08:59:45;;;;;;;36.50;20.87;;;23.80;99.90;;;;;;6280584;22;21094;-84
2021/06/29 09:02:11;;;;;;;24.90;7.97;;;23.50;99.90;;;;;;6280662;22;20411;-84
2021/06/29 09:04:50;;;;;;;28.00;15.33;;;23.60;99.90;;;;;;6284025;22;20438;-86
2021/06/29 09:07:22;;;;;;;21.97;8.50;;;23.30;99.90;;;;;;6280359;22;20470;-83
2021/06/29 09:09:53;;;;;;;25.57;11.70;;;23.20;99.90;;;;;;6277200;22;20909;-83
2021/06/29 09:12:45;;;;;;;31.27;17.30;;;23.30;99.90;;;;;;6276985;22;20414;-84
2021/06/29 09:15:36;;;;;;;35.73;23.20;;;23.30;99.90;;;;;;6282441;22;20426;-83
2021/06/29 09:18:13;;;;;;;30.83;15.87;;;23.40;99.90;;;;;;6283394;22;20394;-84
2021/06/29 09:20:42;;;;;;;30.90;15.87;;;23.50;99.90;;;;;;6279196;22;20402;-85
2021/06/29 09:23:12;;;;;;;38.30;21.77;;;23.40;99.90;;;;;;6280609;22;20442;-84
2021/06/29 09:25:40;;;;;;;36.03;20.97;;;23.20;99.90;;;;;;6278938;22;20905;-84
2021/06/29 09:28:08;;;;;;;36.27;18.97;;;23.10;99.90;;;;;;6280136;22;20442;-86
2021/06/29 09:30:40;;;;;;;33.73;16.90;;;23.10;99.90;;;;;;6284145;22;20482;-84
2021/06/29 09:33:09;;;;;;;51.63;45.57;;;23.10;99.90;;;;;;6281729;22;20736;-83
2021/06/29 09:35:38;;;;;;;30.90;19.27;;;23.00;99.90;;;;;;6282330;22;20500;-84
2021/06/29 09:38:06;;;;;;;34.07;23.67;;;23.10;99.90;;;;;;6281770;22;20407;-83
2021/06/29 09:40:34;;;;;;;30.73;19.67;;;23.40;99.90;;;;;;6283659;22;20481;-83
2021/06/29 09:43:14;;;;;;;33.17;21.67;;;23.70;99.90;;;;;;6284187;22;20441;-83
2021/06/29 09:45:44;;;;;;;34.17;23.67;;;24.00;99.90;;;;;;6282882;22;20466;-84
2021/06/29 09:48:12;;;;;;;28.60;18.93;;;24.10;99.90;;;;;;6281834;22;20425;-84
2021/06/29 09:50:42;;;;;;;53.03;23.37;;;24.00;99.90;;;;;;6281462;22;20450;-85
2021/06/29 09:53:18;;;;;;;33.77;20.20;;;23.80;99.90;;;;;;6279178;22;20469;-86
2021/06/29 09:55:49;;;;;;;35.77;24.07;;;23.70;99.90;;;;;;6285763;22;20479;-86
2021/06/29 09:58:19;;;;;;;37.70;21.77;;;23.70;99.90;;;;;;6287485;22;20732;-84
2021/06/29 10:00:49;;;;;;;42.33;21.20;;;24.00;99.90;;;;;;6288250;22;20625;-85
2021/06/29 10:03:20;;;;;;;42.70;28.40;;;24.00;99.90;;;;;;6289432;22;20453;-85
2021/06/29 10:05:47;;;;;;;38.07;21.00;;;24.10;99.90;;;;;;6287840;22;20380;-85
2021/06/29 10:08:23;;;;;;;43.70;28.20;;;24.50;99.90;;;;;;6287150;22;20422;-84
2021/06/29 10:10:50;;;;;;;42.70;26.50;;;24.30;99.90;;;;;;6288815;22;20450;-84
2021/06/29 10:13:19;;;;;;;39.70;23.30;;;24.10;99.90;;;;;;6291703;22;20506;-86
2021/06/29 10:15:45;;;;;;;32.17;20.70;;;23.90;99.90;;;;;;6298060;22;20417;-85
2021/06/29 10:18:13;;;;;;;37.87;22.77;;;24.10;99.90;;;;;;6297306;22;20413;-84
2021/06/29 10:20:50;;;;;;;41.47;25.27;;;23.80;99.90;;;;;;6287626;22;20410;-84
2021/06/29 10:23:18;;;;;;;444.90;421.42;;;24.30;99.90;;;;;;6287426;22;20405;-84
2021/06/29 10:25:45;;;;;;;40.20;22.10;;;24.90;99.90;;;;;;6287775;22;20176;-84
2021/06/29 10:28:14;;;;;;;69.70;62.60;;;25.40;99.90;;;;;;6290094;22;20460;-85
2021/06/29 10:30:42;;;;;;;43.97;27.87;;;25.30;99.90;;;;;;6284811;22;20538;-85
2021/06/29 10:33:09;;;;;;;45.33;34.30;;;25.70;99.90;;;;;;6284496;22;20773;-86
2021/06/29 10:35:36;;;;;;;133.40;123.43;;;25.90;99.90;;;;;;6285806;22;20799;-86
2021/06/29 10:38:05;;;;;;;116.93;108.07;;;26.10;99.90;;;;;;6283197;22;20430;-83
2021/06/29 10:40:32;;;;;;;46.60;32.57;;;25.80;99.90;;;;;;6283881;22;20923;-85
2021/06/29 10:43:01;;;;;;;51.03;33.20;;;25.80;99.90;;;;;;6283601;22;20450;-86
2021/06/29 10:45:35;;;;;;;156.23;136.67;;;26.20;99.90;;;;;;6280963;22;20780;-83
2021/06/29 10:48:20;;;;;;;53.07;46.30;;;26.30;99.90;;;;;;6285461;22;21157;-85
2021/06/29 10:50:48;;;;;;;131.27;121.37;;;25.90;99.90;;;;;;6282523;22;20437;-83
2021/06/29 10:53:38;;;;;;;52.80;42.53;;;25.70;99.90;;;;;;6282170;22;20967;-84
2021/06/29 10:56:08;;;;;;;55.13;47.57;;;25.30;99.90;;;;;;6278382;22;20446;-84
2021/06/29 10:58:38;;;;;;;62.90;55.10;;;25.00;99.90;;;;;;6281961;22;20429;-84
2021/06/29 11:01:22;;;;;;;54.10;48.27;;;25.20;99.90;;;;;;6285372;22;20419;-84
2021/06/29 11:03:50;;;;;;;58.43;47.07;;;25.70;99.90;;;;;;6281524;22;20502;-84
2021/06/29 11:06:32;;;;;;;48.50;36.67;;;25.70;99.90;;;;;;6285251;22;20415;-84
2021/06/29 11:09:00;;;;;;;145.60;135.97;;;25.60;99.90;;;;;;6283554;22;20399;-85
2021/06/29 11:11:27;;;;;;;61.70;55.17;;;25.50;99.90;;;;;;6282322;22;20533;-84
2021/06/29 11:13:54;;;;;;;57.70;46.20;;;26.10;99.90;;;;;;6280653;22;20766;-85
2021/06/29 11:16:51;;;;;;;97.13;89.17;;;26.50;99.90;;;;;;6282005;22;20971;-85
2021/06/29 11:19:20;;;;;;;42.60;20.13;;;27.50;99.90;;;;;;6276488;22;20423;-85
2021/06/29 11:21:47;;;;;;;47.13;35.93;;;27.00;99.90;;;;;;6278878;22;20486;-85
2021/06/29 11:24:43;;;;;;;51.10;36.87;;;26.70;99.90;;;;;;6280235;22;20426;-85
2021/06/29 11:27:10;;;;;;;199.13;187.50;;;25.90;99.90;;;;;;6272781;22;20411;-84
2021/06/29 11:29:38;;;;;;;78.07;70.67;;;25.40;99.90;;;;;;6281251;22;20949;-86
2021/06/29 11:32:28;;;;;;;53.40;44.03;;;25.20;99.90;;;;;;6279292;22;20478;-85
2021/06/29 11:35:19;;;;;;;64.60;52.28;;;25.00;99.90;;;;;;6282956;22;20366;-82
2021/06/29 11:38:11;;;;;;;37.50;24.13;;;25.00;99.90;;;;;;6282275;22;20262;-84
2021/06/29 11:40:38;;;;;;;72.13;64.67;;;25.30;99.90;;;;;;6252484;22;20483;-84
2021/06/29 11:43:11;;;;;;;92.90;83.97;;;25.50;99.90;;;;;;6281656;22;20456;-83
2021/06/29 11:45:39;;;;;;;71.83;64.00;;;25.30;99.90;;;;;;6281719;22;20882;-83
2021/06/29 11:48:06;;;;;;;40.57;22.03;;;25.30;99.90;;;;;;6282179;22;20406;-83
2021/06/29 11:50:42;;;;;;;37.90;23.50;;;25.50;99.90;;;;;;6282106;22;20387;-83
2021/06/29 11:53:22;;;;;;;145.17;132.03;;;25.10;99.90;;;;;;6282684;22;20455;-83
2021/06/29 11:55:49;;;;;;;106.67;97.03;;;24.80;99.90;;;;;;6280600;22;20456;-83
2021/06/29 11:58:16;;;;;;;84.90;77.40;;;24.80;99.90;;;;;;6281883;22;20442;-84
2021/06/29 12:00:43;;;;;;;155.50;145.43;;;25.50;99.90;;;;;;6281628;22;20442;-83
2021/06/29 12:03:13;;;;;;;412.73;388.70;;;26.50;99.90;;;;;;6282713;22;20415;-82
2021/06/29 12:05:41;;;;;;;914.90;853.17;;;27.70;99.90;;;;;;6282302;22;20451;-84
2021/06/29 12:08:13;;;;;;;684.90;624.03;;;28.50;99.90;;;;;;6282938;22;20659;-85
2021/06/29 12:10:41;;;;;;;1048.13;945.80;;;28.70;99.90;;;;;;6281860;22;20403;-84
2021/06/29 12:13:10;;;;;;;602.97;562.03;;;28.90;99.90;;;;;;6282236;22;20502;-84
2021/06/29 12:15:40;;;;;;;639.57;586.97;;;29.80;99.90;;;;;;6282506;22;20430;-86
2021/06/29 12:18:08;;;;;;;48.47;44.57;;;30.10;99.90;;;;;;6282120;22;20419;-85
2021/06/29 12:20:37;;;;;;;1397.13;712.23;;;30.20;99.90;;;;;;6282743;22;20419;-84
2021/06/29 12:23:10;;;;;;;488.77;449.07;;;30.00;99.90;;;;;;6281983;22;20474;-84
2021/06/29 12:25:40;;;;;;;562.30;518.17;;;29.20;99.90;;;;;;6278880;22;20419;-85
2021/06/29 12:28:10;;;;;;;855.33;770.23;;;28.40;99.90;;;;;;6283323;22;20462;-86
2021/06/29 12:30:41;;;;;;;22.67;13.37;;;27.40;99.90;;;;;;6283258;22;20806;-86
2021/06/29 12:33:23;;;;;;;59.43;54.13;;;27.50;99.90;;;;;;6284537;22;20390;-87
2021/06/29 12:35:53;;;;;;;15.07;10.30;;;28.20;99.90;;;;;;6284164;22;20777;-85
2021/06/29 12:38:24;;;;;;;979.83;894.40;;;27.60;99.90;;;;;;6284124;22;20442;-85
2021/06/29 12:40:55;;;;;;;22.17;18.07;;;27.30;99.90;;;;;;6281301;22;20387;-87
2021/06/29 12:43:31;;;;;;;39.00;28.23;;;27.90;99.90;;;;;;6282770;22;20466;-86
2021/06/29 12:46:20;;;;;;;23.63;18.10;;;29.30;99.90;;;;;;6281537;22;20446;-85